Latest Weather Observations for Goulburn Airport

IDN60801

Issued at 6:32 am EST Friday 28 August 2015 (issued every 30 minutes, with the page automatically refreshed every 10 minutes)

About weather observations | Map of weather stations | Latest weather observations for NSW | Other Formats
Station Details ID: 070330 Name: GOULBURN AIRPORT AWS Lat: -34.81 Lon: 149.73 Height: 640.0 m
Data from the previous 72 hours. | See also: Recent months at Goulburn Airport
Date/Time
EST
Temp
°C
App
Temp
°C
Dew
Point
Rel
Hum
%
Delta-T
°C
Wind Press
QNH
hPa
Press
MSL
hPa
Rain
since 9 am
mm
Dir
 
Spd
km/h
Gust
km/h
Spd
kts
Gust
kts
28/06:00am 6.1 0.2 4.1 87 0.9 W 24 32 13 17 1018.7 1019.5 2.2
28/05:51am 6.1 -0.1 4.1 87 0.9 W 26 33 14 18 1018.7 1019.5 2.2
28/05:30am 5.9 -1.2 3.7 86 1.0 W 30 39 16 21 1018.1 1019.0 2.2
28/05:20am 5.9 -0.8 3.6 85 1.0 WNW 28 37 15 20 1018.0 1018.8 2.2
28/05:00am 5.8 -0.2 3.5 85 1.0 WNW 24 37 13 20 1018.1 1019.0 2.2
28/04:30am 6.0 0.0 3.3 83 1.2 W 24 35 13 19 1018.1 1019.0 2.2
28/04:00am 6.4 1.3 3.9 84 1.1 WNW 20 26 11 14 1017.9 1018.7 2.2
28/03:30am 6.5 -0.5 4.0 84 1.1 WNW 30 39 16 21 1017.6 1018.4 2.2
28/03:00am 6.6 -0.3 4.4 86 1.0 WNW 30 39 16 21 1017.5 1018.3 2.2
28/02:30am 6.7 -0.7 4.9 88 0.8 WNW 33 39 18 21 1017.0 1017.8 2.2
28/02:00am 6.7 0.6 5.0 89 0.8 WNW 26 33 14 18 1017.4 1018.2 2.2
28/01:30am 6.8 0.4 5.1 89 0.8 WNW 28 37 15 20 1017.7 1018.5 2.2
28/01:00am 6.9 0.9 5.2 89 0.8 WNW 26 33 14 18 1018.1 1019.0 2.2
28/12:30am 6.7 1.0 4.9 88 0.8 W 24 33 13 18 1018.0 1018.8 2.2
28/12:00am 6.5 0.4 5.0 90 0.7 WNW 26 35 14 19 1017.7 1018.5 2.2
 
Date/Time
EST
Temp
°C
App
Temp
°C
Dew
Point
Rel
Hum
%
Delta-T
°C
Wind Press
QNH
hPa
Press
MSL
hPa
Rain
since 9 am
mm
Dir
 
Spd
km/h
Gust
km/h
Spd
kts
Gust
kts
27/11:30pm 6.6 0.6 5.4 92 0.6 WNW 26 32 14 17 1018.3 1019.1 2.2
27/11:00pm 7.0 0.6 5.0 87 0.9 WNW 28 35 15 19 1018.5 1019.3 2.2
27/10:30pm 7.0 0.9 5.0 87 0.9 WNW 26 32 14 17 1018.5 1019.3 2.2
27/10:00pm 6.9 2.2 5.1 88 0.8 WNW 19 28 10 15 1018.7 1019.5 2.2
27/09:30pm 6.8 1.1 5.0 88 0.8 W 24 32 13 17 1018.6 1019.4 2.2
27/09:00pm 6.7 1.3 4.7 87 0.9 W 22 32 12 17 1018.7 1019.5 2.2
27/08:30pm 6.8 1.5 5.0 88 0.8 W 22 32 12 17 1018.6 1019.4 2.2
27/08:22pm 6.6 1.3 4.9 89 0.8 W 22 32 12 17 1018.6 1019.4 2.2
27/08:00pm 5.7 1.6 4.3 91 0.6 W 15 20 8 11 1018.1 1019.0 2.2
27/07:30pm 6.1 2.4 4.4 89 0.8 W 13 19 7 10 1018.0 1018.8 2.2
27/07:00pm 6.7 1.4 4.9 88 0.8 W 22 32 12 17 1017.7 1018.5 2.2
27/06:41pm 7.0 0.2 5.0 87 0.9 WNW 30 37 16 20 1017.4 1018.2 2.2
27/06:30pm 7.3 -0.1 5.1 86 1.0 WNW 33 43 18 23 1017.1 1017.9 2.2
27/06:00pm 8.4 3.9 5.9 84 1.2 W 19 28 10 15 1017.2 1018.0 2.2
27/05:30pm 8.8 3.6 5.7 81 1.5 WNW 22 32 12 17 1017.0 1017.8 2.2
27/05:00pm 9.0 3.0 5.4 78 1.7 WNW 26 32 14 17 1016.7 1017.4 2.2
27/04:30pm 9.3 2.2 5.3 76 1.9 WNW 32 39 17 21 1016.7 1017.4 2.2
27/04:00pm 11.1 3.6 6.3 72 2.3 WNW 35 50 19 27 1016.3 1017.1 2.2
27/03:30pm 12.0 5.5 6.3 68 2.8 WNW 30 39 16 21 1016.1 1016.9 2.2
27/03:00pm 12.7 6.7 7.0 68 2.8 W 28 35 15 19 1016.0 1016.8 2.2
27/02:30pm 12.6 7.5 7.7 72 2.5 W 24 33 13 18 1016.3 1017.1 2.2
27/02:00pm 10.5 5.6 8.3 86 1.1 WNW 24 33 13 18 1016.8 1017.6 2.2
27/01:30pm 11.9 6.0 7.4 74 2.3 WNW 28 35 15 19 1016.9 1017.7 0.0
27/01:00pm 12.6 7.8 7.5 71 2.6 WNW 22 30 12 16 1017.2 1018.0 0.0
27/12:30pm 13.0 6.3 7.2 68 2.9 NW 32 43 17 23 1017.5 1018.3 0.0
27/12:00pm 13.5 7.6 7.3 66 3.1 WNW 28 37 15 20 1017.8 1018.6 0.0
27/11:30am 13.1 7.2 7.3 68 2.9 WNW 28 39 15 21 1018.0 1018.8 0.0
27/11:00am 13.5 8.1 7.9 69 2.9 WNW 26 35 14 19 1018.6 1019.4 0.0
27/10:30am 12.5 8.0 8.4 76 2.1 WNW 22 32 12 17 1018.9 1019.7 0.0
27/10:23am 12.3 7.8 8.6 78 1.9 NW 22 30 12 16 1019.0 1019.8 0.0
27/10:00am 11.5 8.1 9.1 85 1.2 WNW 17 22 9 12 1019.3 1020.1 0.0
27/09:48am 11.4 7.6 9.0 85 1.2 WNW 19 24 10 13 1019.4 1020.3 0.0
27/09:30am 11.4 7.7 9.5 88 1.0 WNW 19 26 10 14 1019.4 1020.3 0.0
27/09:16am 11.1 8.7 9.9 92 0.6 NW 13 19 7 10 1019.5 1020.4 0.0
27/09:00am 10.7 8.6 9.8 94 0.5 NNW 11 13 6 7 1019.6 1020.5 1.0
27/08:30am 10.0 8.8 9.7 98 0.2 WNW 6 9 3 5 1019.6 1020.5 1.0
27/08:00am 9.5 8.3 9.4 99 0.1 NNW 6 7 3 4 1019.7 1020.6 1.0
27/07:30am 9.1 8.9 9.0 99 0.1 CALM 0 0 0 0 1019.4 1020.3 1.0
27/07:00am 9.0 8.0 8.9 99 0.1 N 4 7 2 4 1019.4 1020.3 1.0
27/06:30am 8.9 7.9 8.8 99 0.1 NW 4 7 2 4 1019.3 1020.1 1.0
27/06:00am 8.7 7.1 8.6 99 0.1 NW 7 9 4 5 1019.4 1020.3 1.0
27/05:30am 8.5 6.8 8.2 98 0.1 WSW 7 9 4 5 1019.2 1020.0 1.0
27/05:28am 8.6 6.9 8.5 99 0.1 SW 7 9 4 5 1019.2 1020.0 1.0
27/05:00am 9.0 7.1 8.9 99 0.1 SSE 9 11 5 6 1018.9 1019.7 1.0
27/04:44am 9.1 6.4 9.0 99 0.1 S 13 15 7 8 1019.4 1020.3 1.0
27/04:30am 9.2 7.3 9.1 99 0.1 SW 9 13 5 7 1019.4 1020.3 1.0
27/04:00am 9.2 7.7 9.1 99 0.1 W 7 9 4 5 1019.7 1020.6 0.8
27/03:30am 9.3 8.0 9.2 99 0.1 W 6 9 3 5 1019.9 1020.7 0.4
27/03:00am 9.3 7.8 9.2 99 0.1 SSE 7 7 4 4 1019.2 1020.0 0.4
27/02:30am 9.3 7.4 9.2 99 0.1 S 9 11 5 6 1019.6 1020.5 0.4
27/02:02am 9.3 7.4 9.2 99 0.1 S 9 11 5 6 1020.3 1021.1 0.4
27/02:00am 9.3 7.4 9.2 99 0.1 S 9 11 5 6 1020.3 1021.1 0.4
27/01:50am 9.2 6.9 9.1 99 0.1 S 11 13 6 7 1020.3 1021.1 0.4
27/01:30am 9.0 6.6 8.7 98 0.2 S 11 13 6 7 1020.4 1021.2 0.4
27/01:00am 9.5 8.0 9.2 98 0.2 SSW 7 9 4 5 1020.8 1021.7 0.4
27/12:30am 9.4 9.2 8.9 97 0.3 CALM 0 0 0 0 1020.9 1021.8 0.4
27/12:00am 9.5 8.9 9.0 97 0.3 SSE 2 7 1 4 1021.1 1022.0 0.2
 
Date/Time
EST
Temp
°C
App
Temp
°C
Dew
Point
Rel
Hum
%
Delta-T
°C
Wind Press
QNH
hPa
Press
MSL
hPa
Rain
since 9 am
mm
Dir
 
Spd
km/h
Gust
km/h
Spd
kts
Gust
kts
26/11:30pm 9.5 8.1 8.9 96 0.3 SSE 6 7 3 4 1021.6 1022.4 0.2
26/11:00pm 9.6 8.0 8.8 95 0.4 S 7 11 4 6 1022.0 1022.8 0.2
26/10:30pm 9.8 7.0 8.7 93 0.6 SSE 13 15 7 8 1022.2 1023.1 0.2
26/10:00pm 9.8 8.2 8.9 94 0.5 S 7 9 4 5 1022.5 1023.4 0.2
26/09:30pm 9.7 7.3 8.8 94 0.5 SSW 11 13 6 7 1022.6 1023.5 0.2
26/09:00pm 9.7 7.7 8.6 93 0.6 SSW 9 13 5 7 1022.6 1023.5 0.2
26/08:30pm 9.7 6.9 8.6 93 0.6 S 13 20 7 11 1022.5 1023.4 0.2
26/08:28pm 9.7 6.9 8.6 93 0.6 S 13 20 7 11 1022.5 1023.4 0.2
26/08:00pm 9.8 7.8 8.7 93 0.6 S 9 13 5 7 1022.7 1023.6 0.2
26/07:51pm 9.9 7.5 8.7 92 0.6 S 11 13 6 7 1022.7 1023.6 0.2
26/07:39pm 9.9 8.3 8.7 92 0.6 S 7 9 4 5 1022.7 1023.6 0.2
26/07:30pm 9.9 7.5 8.5 91 0.7 S 11 13 6 7 1022.7 1023.6 0.2
26/07:00pm 10.2 7.7 8.3 88 1.0 SSW 11 17 6 9 1022.5 1023.4 0.2
26/06:30pm 10.4 6.8 8.3 87 1.1 SSE 17 24 9 13 1022.1 1023.0 0.2
26/06:00pm 10.4 7.2 8.3 87 1.1 SSE 15 20 8 11 1022.0 1022.8 0.2
26/05:30pm 10.6 6.3 8.0 84 1.3 SSE 20 28 11 15 1021.8 1022.6 0.2
26/05:00pm 11.4 6.9 8.4 82 1.5 SSE 22 32 12 17 1021.3 1022.2 0.2
26/04:46pm 11.6 6.7 8.6 82 1.5 SSE 24 32 13 17 1021.1 1022.0 0.2
26/04:30pm 11.8 6.2 8.6 81 1.6 SSE 28 37 15 20 1021.0 1021.9 0.2
26/04:00pm 12.6 8.0 9.8 83 1.5 SSE 24 35 13 19 1020.5 1021.3 0.2
26/03:54pm 12.8 7.8 9.6 81 1.7 SSE 26 35 14 19 1020.4 1021.2 0.2
26/03:30pm 12.7 7.1 8.8 77 2.0 SE 28 41 15 22 1020.4 1021.2 0.2
26/03:00pm 12.8 7.3 9.1 78 1.9 SSE 28 37 15 20 1020.5 1021.3 0.2
26/02:59pm 13.0 7.6 9.6 80 1.8 SSE 28 37 15 20 1020.5 1021.3 0.2
26/02:43pm 11.8 5.5 9.0 83 1.4 SSE 32 41 17 22 1020.6 1021.4 0.2
26/02:30pm 13.5 7.4 9.7 78 2.0 SSE 32 39 17 21 1020.5 1021.3 0.2
26/02:12pm 12.9 7.6 9.9 82 1.6 SSE 28 37 15 20 1020.8 1021.7 0.2
26/02:01pm 12.2 6.4 9.4 83 1.5 SSE 30 41 16 22 1020.9 1021.8 0.2
26/02:00pm 12.6 6.9 9.8 83 1.5 SSE 30 41 16 22 1020.9 1021.8 0.2
26/01:51pm 12.2 6.4 9.4 83 1.5 SSE 30 41 16 22 1021.0 1021.9 0.2
26/01:41pm 12.0 5.7 9.0 82 1.6 SSE 32 46 17 25 1021.0 1021.9 0.2
26/01:30pm 13.3 7.1 9.5 78 2.0 SSE 32 43 17 23 1021.0 1021.9 0.2
26/01:00pm 13.9 9.0 11.4 85 1.4 SSE 28 35 15 19 1021.2 1022.1 0.2
26/12:54pm 12.9 7.2 11.0 88 1.0 SSE 32 44 17 24 1021.4 1022.3 0.2
26/12:30pm 12.4 6.8 10.0 85 1.3 SSE 30 44 16 24 1021.7 1022.5 0.2
26/12:19pm 13.3 7.5 10.8 85 1.4 SE 32 41 17 22 1021.8 1022.6 0.2
26/12:00pm 12.6 6.1 10.5 87 1.1 SE 35 46 19 25 1022.0 1022.8 0.2
26/11:47am 11.9 6.2 9.8 87 1.1 SSE 30 44 16 24 1022.3 1023.2 0.2
26/11:30am 11.7 5.8 10.4 92 0.7 SSE 32 43 17 23 1022.1 1023.0 0.2
26/11:00am 11.9 7.4 11.4 97 0.3 SSE 26 37 14 20 1022.1 1023.0 0.2
26/10:33am 10.7 5.9 10.2 97 0.3 S 26 32 14 17 1022.3 1023.2 0.2
26/10:30am 10.5 5.6 9.9 96 0.3 S 26 32 14 17 1022.2 1023.1 0.2
26/10:12am 11.3 6.6 10.7 96 0.3 SSE 26 35 14 19 1022.5 1023.4 0.2
26/10:00am 10.7 5.8 10.1 96 0.3 S 26 32 14 17 1022.4 1023.3 0.2
26/09:30am 10.0 5.4 9.7 98 0.2 S 24 32 13 17 1022.2 1023.1 0.2
26/09:28am 9.9 5.3 9.6 98 0.2 S 24 32 13 17 1022.2 1023.1 0.2
26/09:00am 9.4 4.2 8.9 97 0.3 S 26 32 14 17 1022.2 1023.1 20.2
26/08:30am 9.1 4.2 8.6 97 0.3 S 24 32 13 17 1022.0 1022.8 20.0
26/08:26am 9.0 4.2 8.7 98 0.2 S 24 32 13 17 1022.0 1022.8 20.0
26/08:00am 8.8 3.5 8.4 97 0.2 S 26 32 14 17 1021.7 1022.5 19.8
26/07:41am 8.6 4.0 8.2 97 0.2 S 22 28 12 15 1021.4 1022.3 19.8
26/07:30am 8.7 4.5 8.3 97 0.2 SSW 20 26 11 14 1021.6 1022.4 19.8
26/07:01am 8.8 2.7 8.4 97 0.2 S 30 37 16 20 1020.9 1021.8 19.6
26/07:00am 8.8 2.7 8.4 97 0.2 S 30 37 16 20 1020.8 1021.7 19.6
26/06:30am 8.6 2.9 8.2 97 0.2 S 28 35 15 19 1020.4 1021.2 19.6
26/06:00am 8.6 2.4 8.0 96 0.3 S 30 37 16 20 1020.3 1021.1 19.4
26/05:30am 8.5 1.7 7.9 96 0.3 S 33 43 18 23 1020.1 1020.9 19.4
26/05:00am 8.4 1.6 7.8 96 0.3 S 33 43 18 23 1019.9 1020.7 19.2
26/04:30am 8.4 1.6 7.8 96 0.3 S 33 46 18 25 1019.4 1020.3 19.0
26/04:00am 8.4 1.8 7.6 95 0.4 S 32 43 17 23 1019.4 1020.3 19.0
26/03:30am 8.4 1.6 7.8 96 0.3 S 33 43 18 23 1019.1 1019.9 19.0
26/03:00am 8.4 1.6 7.6 95 0.4 S 33 44 18 24 1019.1 1019.9 19.0
26/02:30am 8.5 1.3 7.7 95 0.4 S 35 43 19 23 1019.3 1020.1 18.6
26/02:00am 8.6 1.8 7.7 94 0.4 S 33 44 18 24 1019.3 1020.1 18.6
26/01:30am 8.7 1.9 7.8 94 0.4 S 33 46 18 25 1019.4 1020.3 18.4
26/01:00am 8.6 1.4 7.8 95 0.4 S 35 46 19 25 1019.2 1020.0 18.2
26/12:30am 8.2 1.3 7.4 95 0.4 S 33 46 18 25 1019.2 1020.0 17.4
26/12:00am 8.0 0.7 7.1 94 0.4 S 35 44 19 24 1019.2 1020.0 17.0
 
Date/Time
EST
Temp
°C
App
Temp
°C
Dew
Point
Rel
Hum
%
Delta-T
°C
Wind Press
QNH
hPa
Press
MSL
hPa
Rain
since 9 am
mm
Dir
 
Spd
km/h
Gust
km/h
Spd
kts
Gust
kts
25/11:51pm 7.9 -0.2 7.0 94 0.4 S 39 48 21 26 1019.1 1019.9 17.0
25/11:30pm 7.7 -0.4 6.8 94 0.4 S 39 54 21 29 1019.1 1019.9 16.6
25/11:00pm 7.5 -1.1 6.3 92 0.6 S 41 54 22 29 1019.3 1020.1 16.0
25/10:43pm 7.6 -1.1 6.2 91 0.7 S 41 59 22 32 1019.4 1020.3 15.8
25/10:30pm 7.6 -1.0 6.4 92 0.6 S 41 57 22 31 1019.5 1020.4 15.8
25/10:00pm 7.6 -1.4 6.2 91 0.7 S 43 56 23 30 1019.5 1020.4 15.2
25/09:32pm 7.6 -1.0 6.5 93 0.5 S 41 56 22 30 1019.4 1020.3 14.6
25/09:30pm 7.6 -1.0 6.5 93 0.5 S 41 54 22 29 1019.5 1020.4 14.4
25/09:03pm 7.4 -1.6 6.2 92 0.6 S 43 59 23 32 1019.2 1020.0 13.8
25/09:00pm 7.4 -1.6 6.2 92 0.6 S 43 59 23 32 1019.2 1020.0 13.8
25/08:30pm 7.5 -2.1 6.1 91 0.7 S 46 61 25 33 1019.1 1019.9 13.8
25/08:09pm 7.6 -2.4 6.2 91 0.7 S 48 65 26 35 1019.2 1020.0 13.4
25/08:00pm 7.6 -2.8 6.1 90 0.7 S 50 63 27 34 1019.1 1019.9 13.4
25/07:30pm 7.8 -1.1 6.7 93 0.5 S 43 56 23 30 1019.0 1019.8 13.0
25/07:00pm 8.2 0.1 7.1 93 0.5 S 39 57 21 31 1019.0 1019.8 12.2
25/06:37pm 8.3 1.0 7.4 94 0.4 S 35 54 19 29 1018.9 1019.7 11.0
25/06:30pm 8.3 1.4 7.4 94 0.4 S 33 44 18 24 1018.8 1019.6 10.8
25/06:00pm 8.3 1.6 7.4 94 0.4 S 32 43 17 23 1018.6 1019.4 9.8
25/05:30pm 7.9 0.6 7.0 94 0.4 SSW 35 44 19 24 1017.9 1018.7 9.6
25/05:00pm 8.0 0.3 6.9 93 0.5 SSW 37 48 20 26 1017.7 1018.5 9.2
25/04:30pm 8.0 1.0 6.8 92 0.6 SSW 33 43 18 23 1017.5 1018.3 9.0
25/04:00pm 8.0 1.5 6.6 91 0.7 SSW 30 46 16 25 1017.4 1018.2 8.6
25/03:30pm 7.8 1.3 6.7 93 0.5 SSW 30 46 16 25 1017.3 1018.1 8.6
25/03:27pm 7.8 0.9 6.6 92 0.6 SSW 32 46 17 25 1017.3 1018.1 8.4
25/03:00pm 7.9 1.0 6.5 91 0.7 SSW 32 44 17 24 1017.3 1018.1 7.0
25/02:30pm 7.9 1.8 6.4 90 0.7 SSW 28 41 15 22 1017.4 1018.2 6.6
25/02:00pm 7.7 1.2 6.3 91 0.7 SSW 30 48 16 26 1017.6 1018.4 6.4
25/01:55pm 7.7 1.5 6.2 90 0.7 SSW 28 48 15 26 1017.6 1018.4 6.4
25/01:30pm 7.2 2.2 6.3 94 0.4 SSW 22 30 12 16 1017.8 1018.6 6.2
25/01:00pm 7.0 1.2 6.3 95 0.3 SSW 26 37 14 20 1017.9 1018.7 5.2
25/12:30pm 7.0 -0.9 6.3 95 0.3 S 37 50 20 27 1017.9 1018.7 4.2
25/12:20pm 7.0 -2.2 6.3 95 0.3 SSE 44 59 24 32 1017.9 1018.7 3.2
25/12:13pm 7.1 -1.6 6.2 94 0.4 S 41 59 22 32 1017.7 1018.5 1.8
25/12:00pm 7.5 -1.6 6.1 91 0.7 S 43 54 23 29 1017.7 1018.5 0.6
25/11:45am 8.2 -0.8 6.5 89 0.8 S 43 54 23 29 1017.8 1018.6 0.4
25/11:30am 8.7 -1.6 6.5 86 1.1 SSE 50 59 27 32 1017.8 1018.6 0.4
25/11:00am 8.8 -1.0 7.1 89 0.8 SSE 48 67 26 36 1017.5 1018.3 0.4
25/10:53am 8.7 -1.1 7.0 89 0.8 SSE 48 67 26 36 1017.4 1018.2 0.4
25/10:52am 8.7 -1.5 7.0 89 0.8 SSE 50 67 27 36 1017.4 1018.2 0.4
25/10:30am 9.0 1.0 7.3 89 0.8 SSE 39 57 21 31 1017.4 1018.2 0.4
25/10:28am 9.0 1.0 7.3 89 0.8 SSE 39 57 21 31 1017.5 1018.3 0.4
25/10:00am 9.4 2.2 7.8 90 0.8 SSE 35 52 19 28 1017.3 1018.1 0.4
25/09:57am 9.4 2.7 8.0 91 0.7 SSE 33 52 18 28 1017.3 1018.1 0.4
25/09:30am 9.2 3.4 8.1 93 0.5 SSE 28 39 15 21 1017.4 1018.2 0.2
25/09:00am 9.0 3.2 7.9 93 0.5 SSE 28 39 15 21 1017.5 1018.3 28.0
25/08:30am 8.7 2.4 7.6 93 0.5 SSE 30 39 16 21 1017.3 1018.1 28.0
25/08:00am 8.6 2.7 7.7 94 0.4 SSE 28 37 15 20 1017.4 1018.2 28.0
25/07:30am 8.5 3.4 7.7 95 0.4 SSE 24 33 13 18 1017.0 1017.8 28.0
25/07:00am 7.8 3.5 7.2 96 0.3 SSE 19 24 10 13 1016.9 1017.7 28.0

Other Formats:

Comma delimited format used in spreadsheet applications
http://www.bom.gov.au/fwo/IDN60801/IDN60801.95716.axf

JavaScript Object Notation format (JSON) in row-major order
http://www.bom.gov.au/fwo/IDN60801/IDN60801.95716.json